sensor_id;sensor_type;location;lat;lon;timestamp;P1;durP1;ratioP1;P2;durP2;ratioP2
28605;SDS011;46498;49.968;7.754;2023-04-06T00:01:35;8.05;;;4.07;;
28605;SDS011;46498;49.968;7.754;2023-04-06T00:06:36;7.32;;;4.00;;
28605;SDS011;46498;49.968;7.754;2023-04-06T00:11:37;8.45;;;3.97;;
28605;SDS011;46498;49.968;7.754;2023-04-06T00:16:38;7.45;;;4.00;;
28605;SDS011;46498;49.968;7.754;2023-04-06T00:21:41;9.80;;;4.15;;
28605;SDS011;46498;49.968;7.754;2023-04-06T00:26:43;8.93;;;3.85;;
28605;SDS011;46498;49.968;7.754;2023-04-06T00:31:43;10.48;;;4.40;;
28605;SDS011;46498;49.968;7.754;2023-04-06T00:36:44;8.85;;;4.55;;
28605;SDS011;46498;49.968;7.754;2023-04-06T00:41:46;11.02;;;4.37;;
28605;SDS011;46498;49.968;7.754;2023-04-06T00:46:56;8.73;;;4.45;;
28605;SDS011;46498;49.968;7.754;2023-04-06T00:51:56;9.80;;;4.75;;
28605;SDS011;46498;49.968;7.754;2023-04-06T00:56:58;7.18;;;4.03;;
28605;SDS011;46498;49.968;7.754;2023-04-06T01:02:00;9.05;;;4.40;;
28605;SDS011;46498;49.968;7.754;2023-04-06T01:07:15;7.37;;;4.18;;
28605;SDS011;46498;49.968;7.754;2023-04-06T01:12:24;8.05;;;4.05;;
28605;SDS011;46498;49.968;7.754;2023-04-06T01:17:25;7.87;;;4.10;;
28605;SDS011;46498;49.968;7.754;2023-04-06T01:22:26;9.13;;;4.28;;
28605;SDS011;46498;49.968;7.754;2023-04-06T01:27:34;8.88;;;4.37;;
28605;SDS011;46498;49.968;7.754;2023-04-06T01:33:07;9.73;;;4.10;;
28605;SDS011;46498;49.968;7.754;2023-04-06T01:38:16;10.07;;;4.60;;
28605;SDS011;46498;49.968;7.754;2023-04-06T01:43:18;9.00;;;4.23;;
28605;SDS011;46498;49.968;7.754;2023-04-06T01:48:35;9.30;;;4.60;;
28605;SDS011;46498;49.968;7.754;2023-04-06T01:53:45;11.07;;;4.40;;
28605;SDS011;46498;49.968;7.754;2023-04-06T01:58:47;9.88;;;4.72;;
28605;SDS011;46498;49.968;7.754;2023-04-06T02:03:49;10.43;;;4.30;;
28605;SDS011;46498;49.968;7.754;2023-04-06T02:08:50;9.45;;;5.03;;
28605;SDS011;46498;49.968;7.754;2023-04-06T02:13:51;11.15;;;4.87;;
28605;SDS011;46498;49.968;7.754;2023-04-06T02:18:53;13.68;;;5.40;;
28605;SDS011;46498;49.968;7.754;2023-04-06T02:23:54;9.90;;;4.70;;
28605;SDS011;46498;49.968;7.754;2023-04-06T02:28:55;9.18;;;4.15;;
28605;SDS011;46498;49.968;7.754;2023-04-06T02:33:56;8.50;;;4.65;;
28605;SDS011;46498;49.968;7.754;2023-04-06T02:38:57;9.43;;;4.43;;
28605;SDS011;46498;49.968;7.754;2023-04-06T02:44:02;10.52;;;4.53;;
28605;SDS011;46498;49.968;7.754;2023-04-06T02:49:22;9.18;;;4.90;;
28605;SDS011;46498;49.968;7.754;2023-04-06T02:54:26;12.40;;;4.43;;
28605;SDS011;46498;49.968;7.754;2023-04-06T02:59:27;10.98;;;5.03;;
28605;SDS011;46498;49.968;7.754;2023-04-06T03:04:36;11.18;;;4.75;;
28605;SDS011;46498;49.968;7.754;2023-04-06T03:09:39;9.98;;;4.62;;
28605;SDS011;46498;49.968;7.754;2023-04-06T03:14:40;15.25;;;4.75;;
28605;SDS011;46498;49.968;7.754;2023-04-06T03:19:41;10.40;;;5.62;;
28605;SDS011;46498;49.968;7.754;2023-04-06T03:24:44;12.25;;;4.90;;
28605;SDS011;46498;49.968;7.754;2023-04-06T03:29:45;9.10;;;4.60;;
28605;SDS011;46498;49.968;7.754;2023-04-06T03:34:48;8.98;;;5.15;;
28605;SDS011;46498;49.968;7.754;2023-04-06T03:39:49;9.60;;;4.97;;
28605;SDS011;46498;49.968;7.754;2023-04-06T03:44:53;9.07;;;4.85;;
28605;SDS011;46498;49.968;7.754;2023-04-06T03:49:56;8.93;;;4.65;;
28605;SDS011;46498;49.968;7.754;2023-04-06T03:54:57;11.52;;;4.75;;
28605;SDS011;46498;49.968;7.754;2023-04-06T03:59:58;10.57;;;4.87;;
28605;SDS011;46498;49.968;7.754;2023-04-06T04:05:00;8.98;;;4.87;;
28605;SDS011;46498;49.968;7.754;2023-04-06T04:10:01;10.40;;;4.95;;
28605;SDS011;46498;49.968;7.754;2023-04-06T04:15:04;10.00;;;4.90;;
28605;SDS011;46498;49.968;7.754;2023-04-06T04:20:05;10.98;;;5.05;;
28605;SDS011;46498;49.968;7.754;2023-04-06T04:25:08;12.00;;;5.85;;
28605;SDS011;46498;49.968;7.754;2023-04-06T04:30:17;11.68;;;5.30;;
28605;SDS011;46498;49.968;7.754;2023-04-06T04:35:18;10.75;;;4.70;;
28605;SDS011;46498;49.968;7.754;2023-04-06T04:40:19;10.82;;;4.87;;
28605;SDS011;46498;49.968;7.754;2023-04-06T04:45:36;11.88;;;5.35;;
28605;SDS011;46498;49.968;7.754;2023-04-06T04:50:58;8.60;;;4.65;;
28605;SDS011;46498;49.968;7.754;2023-04-06T04:56:01;9.70;;;5.05;;
28605;SDS011;46498;49.968;7.754;2023-04-06T05:01:02;11.95;;;5.43;;
28605;SDS011;46498;49.968;7.754;2023-04-06T05:06:04;10.25;;;5.35;;
28605;SDS011;46498;49.968;7.754;2023-04-06T05:11:10;14.98;;;6.20;;
28605;SDS011;46498;49.968;7.754;2023-04-06T05:16:16;12.68;;;6.12;;
28605;SDS011;46498;49.968;7.754;2023-04-06T05:21:18;12.15;;;5.72;;
28605;SDS011;46498;49.968;7.754;2023-04-06T05:26:28;13.15;;;5.40;;
28605;SDS011;46498;49.968;7.754;2023-04-06T05:31:34;12.23;;;5.70;;
28605;SDS011;46498;49.968;7.754;2023-04-06T05:36:35;13.68;;;5.62;;
28605;SDS011;46498;49.968;7.754;2023-04-06T05:41:40;11.05;;;5.18;;
28605;SDS011;46498;49.968;7.754;2023-04-06T05:46:44;12.68;;;5.40;;
28605;SDS011;46498;49.968;7.754;2023-04-06T05:51:47;12.93;;;5.45;;
28605;SDS011;46498;49.968;7.754;2023-04-06T05:56:48;10.68;;;5.43;;
28605;SDS011;46498;49.968;7.754;2023-04-06T06:01:50;11.43;;;6.12;;
28605;SDS011;46498;49.968;7.754;2023-04-06T06:06:54;15.90;;;6.90;;
28605;SDS011;46498;49.968;7.754;2023-04-06T06:12:08;18.35;;;7.43;;
28605;SDS011;46498;49.968;7.754;2023-04-06T06:17:15;18.02;;;6.78;;
28605;SDS011;46498;49.968;7.754;2023-04-06T06:22:16;14.77;;;6.40;;
28605;SDS011;46498;49.968;7.754;2023-04-06T06:27:19;11.68;;;6.12;;
28605;SDS011;46498;49.968;7.754;2023-04-06T06:32:21;13.50;;;6.25;;
28605;SDS011;46498;49.968;7.754;2023-04-06T06:37:24;13.25;;;6.20;;
28605;SDS011;46498;49.968;7.754;2023-04-06T06:42:25;16.27;;;5.97;;
28605;SDS011;46498;49.968;7.754;2023-04-06T06:47:37;13.18;;;6.15;;
28605;SDS011;46498;49.968;7.754;2023-04-06T06:52:38;14.95;;;5.93;;
28605;SDS011;46498;49.968;7.754;2023-04-06T06:57:40;18.67;;;6.30;;
28605;SDS011;46498;49.968;7.754;2023-04-06T07:02:43;13.95;;;6.37;;
28605;SDS011;46498;49.968;7.754;2023-04-06T07:07:44;11.15;;;5.55;;
28605;SDS011;46498;49.968;7.754;2023-04-06T07:12:45;9.65;;;5.40;;
28605;SDS011;46498;49.968;7.754;2023-04-06T07:17:47;11.63;;;5.87;;
28605;SDS011;46498;49.968;7.754;2023-04-06T07:22:48;16.12;;;6.62;;
28605;SDS011;46498;49.968;7.754;2023-04-06T07:27:49;15.38;;;6.90;;
28605;SDS011;46498;49.968;7.754;2023-04-06T07:32:52;16.48;;;6.45;;
28605;SDS011;46498;49.968;7.754;2023-04-06T07:37:54;17.50;;;6.95;;
28605;SDS011;46498;49.968;7.754;2023-04-06T07:42:56;12.98;;;7.03;;
28605;SDS011;46498;49.968;7.754;2023-04-06T07:47:59;20.60;;;7.03;;
28605;SDS011;46498;49.968;7.754;2023-04-06T07:53:00;11.98;;;6.05;;
28605;SDS011;46498;49.968;7.754;2023-04-06T07:58:02;15.00;;;7.20;;
28605;SDS011;46498;49.968;7.754;2023-04-06T08:03:03;15.20;;;6.85;;
28605;SDS011;46498;49.968;7.754;2023-04-06T08:08:05;20.73;;;7.18;;
28605;SDS011;46498;49.968;7.754;2023-04-06T08:13:06;14.05;;;7.00;;
28605;SDS011;46498;49.968;7.754;2023-04-06T08:18:08;19.47;;;7.77;;
28605;SDS011;46498;49.968;7.754;2023-04-06T08:23:09;15.73;;;7.90;;
28605;SDS011;46498;49.968;7.754;2023-04-06T08:28:11;13.38;;;7.45;;
28605;SDS011;46498;49.968;7.754;2023-04-06T08:33:12;17.87;;;7.95;;
28605;SDS011;46498;49.968;7.754;2023-04-06T08:38:13;16.95;;;7.85;;
28605;SDS011;46498;49.968;7.754;2023-04-06T08:43:14;17.62;;;7.95;;
28605;SDS011;46498;49.968;7.754;2023-04-06T08:48:21;22.90;;;7.93;;
28605;SDS011;46498;49.968;7.754;2023-04-06T08:53:22;16.17;;;8.45;;
28605;SDS011;46498;49.968;7.754;2023-04-06T08:58:24;16.57;;;7.83;;
28605;SDS011;46498;49.968;7.754;2023-04-06T09:03:39;16.95;;;7.72;;
28605;SDS011;46498;49.968;7.754;2023-04-06T09:08:42;15.98;;;7.45;;
28605;SDS011;46498;49.968;7.754;2023-04-06T09:13:50;16.60;;;7.93;;
28605;SDS011;46498;49.968;7.754;2023-04-06T09:18:52;16.83;;;7.50;;
28605;SDS011;46498;49.968;7.754;2023-04-06T09:24:00;15.02;;;7.65;;
28605;SDS011;46498;49.968;7.754;2023-04-06T09:29:02;17.62;;;8.43;;
28605;SDS011;46498;49.968;7.754;2023-04-06T09:34:04;17.40;;;7.97;;
28605;SDS011;46498;49.968;7.754;2023-04-06T09:39:05;17.27;;;8.75;;
28605;SDS011;46498;49.968;7.754;2023-04-06T09:44:07;21.23;;;8.32;;
28605;SDS011;46498;49.968;7.754;2023-04-06T09:49:10;16.90;;;8.43;;
28605;SDS011;46498;49.968;7.754;2023-04-06T09:54:15;19.55;;;8.02;;
28605;SDS011;46498;49.968;7.754;2023-04-06T09:59:28;17.05;;;8.07;;
28605;SDS011;46498;49.968;7.754;2023-04-06T10:06:24;17.62;;;7.95;;
28605;SDS011;46498;49.968;7.754;2023-04-06T10:11:29;16.10;;;8.13;;
28605;SDS011;46498;49.968;7.754;2023-04-06T10:16:30;17.80;;;7.90;;
28605;SDS011;46498;49.968;7.754;2023-04-06T10:21:32;15.18;;;7.65;;
28605;SDS011;46498;49.968;7.754;2023-04-06T10:31:39;15.77;;;7.82;;
28605;SDS011;46498;49.968;7.754;2023-04-06T10:36:43;14.15;;;6.87;;
28605;SDS011;46498;49.968;7.754;2023-04-06T10:41:45;14.35;;;7.25;;
28605;SDS011;46498;49.968;7.754;2023-04-06T10:46:58;14.23;;;7.47;;
28605;SDS011;46498;49.968;7.754;2023-04-06T10:52:03;15.30;;;8.55;;
28605;SDS011;46498;49.968;7.754;2023-04-06T10:57:04;17.83;;;7.72;;
28605;SDS011;46498;49.968;7.754;2023-04-06T11:02:06;16.02;;;7.95;;
28605;SDS011;46498;49.968;7.754;2023-04-06T11:07:07;18.75;;;8.45;;
28605;SDS011;46498;49.968;7.754;2023-04-06T11:12:08;18.73;;;8.32;;
28605;SDS011;46498;49.968;7.754;2023-04-06T11:17:08;15.73;;;7.57;;
28605;SDS011;46498;49.968;7.754;2023-04-06T11:22:10;18.58;;;8.02;;
28605;SDS011;46498;49.968;7.754;2023-04-06T11:27:11;17.20;;;7.62;;
28605;SDS011;46498;49.968;7.754;2023-04-06T11:32:19;17.15;;;8.23;;
28605;SDS011;46498;49.968;7.754;2023-04-06T11:37:21;18.02;;;7.85;;
28605;SDS011;46498;49.968;7.754;2023-04-06T11:42:28;16.40;;;6.87;;
28605;SDS011;46498;49.968;7.754;2023-04-06T11:47:34;15.15;;;7.95;;
28605;SDS011;46498;49.968;7.754;2023-04-06T11:52:38;18.00;;;6.95;;
28605;SDS011;46498;49.968;7.754;2023-04-06T11:57:40;16.45;;;8.35;;
28605;SDS011;46498;49.968;7.754;2023-04-06T12:02:45;15.50;;;7.67;;
28605;SDS011;46498;49.968;7.754;2023-04-06T12:07:47;15.93;;;7.65;;
28605;SDS011;46498;49.968;7.754;2023-04-06T12:12:47;18.87;;;7.85;;
28605;SDS011;46498;49.968;7.754;2023-04-06T12:17:48;16.95;;;8.07;;
28605;SDS011;46498;49.968;7.754;2023-04-06T12:22:50;17.17;;;7.93;;
28605;SDS011;46498;49.968;7.754;2023-04-06T12:27:51;15.13;;;7.45;;
28605;SDS011;46498;49.968;7.754;2023-04-06T12:32:52;14.63;;;7.93;;
28605;SDS011;46498;49.968;7.754;2023-04-06T12:37:53;16.27;;;7.35;;
28605;SDS011;46498;49.968;7.754;2023-04-06T12:42:54;18.25;;;7.62;;
28605;SDS011;46498;49.968;7.754;2023-04-06T12:47:55;13.88;;;6.72;;
28605;SDS011;46498;49.968;7.754;2023-04-06T12:52:56;14.63;;;6.97;;
28605;SDS011;46498;49.968;7.754;2023-04-06T12:57:57;15.68;;;7.07;;
28605;SDS011;46498;49.968;7.754;2023-04-06T13:02:58;19.05;;;7.37;;
28605;SDS011;46498;49.968;7.754;2023-04-06T13:07:59;15.05;;;7.50;;
28605;SDS011;46498;49.968;7.754;2023-04-06T13:13:00;13.65;;;7.53;;
28605;SDS011;46498;49.968;7.754;2023-04-06T13:18:02;15.15;;;7.18;;
28605;SDS011;46498;49.968;7.754;2023-04-06T13:23:03;15.65;;;7.60;;
28605;SDS011;46498;49.968;7.754;2023-04-06T13:28:04;18.27;;;7.82;;
28605;SDS011;46498;49.968;7.754;2023-04-06T13:33:05;18.00;;;7.97;;
28605;SDS011;46498;49.968;7.754;2023-04-06T13:38:06;17.65;;;8.10;;
28605;SDS011;46498;49.968;7.754;2023-04-06T13:43:08;21.70;;;8.38;;
28605;SDS011;46498;49.968;7.754;2023-04-06T13:48:08;14.27;;;7.87;;
28605;SDS011;46498;49.968;7.754;2023-04-06T13:53:10;18.27;;;7.97;;
28605;SDS011;46498;49.968;7.754;2023-04-06T13:58:11;15.65;;;7.47;;
28605;SDS011;46498;49.968;7.754;2023-04-06T14:03:12;16.60;;;8.25;;
28605;SDS011;46498;49.968;7.754;2023-04-06T14:08:13;20.20;;;7.47;;
28605;SDS011;46498;49.968;7.754;2023-04-06T14:13:14;13.07;;;7.25;;
28605;SDS011;46498;49.968;7.754;2023-04-06T14:18:15;11.30;;;5.78;;
28605;SDS011;46498;49.968;7.754;2023-04-06T14:23:16;12.63;;;5.03;;
28605;SDS011;46498;49.968;7.754;2023-04-06T14:28:17;13.00;;;5.70;;
28605;SDS011;46498;49.968;7.754;2023-04-06T14:33:18;12.68;;;6.32;;
28605;SDS011;46498;49.968;7.754;2023-04-06T14:38:19;16.10;;;6.72;;
28605;SDS011;46498;49.968;7.754;2023-04-06T14:43:19;17.62;;;6.50;;
28605;SDS011;46498;49.968;7.754;2023-04-06T14:48:20;13.05;;;6.35;;
28605;SDS011;46498;49.968;7.754;2023-04-06T14:53:22;19.50;;;6.85;;
28605;SDS011;46498;49.968;7.754;2023-04-06T14:58:25;11.30;;;5.47;;
28605;SDS011;46498;49.968;7.754;2023-04-06T15:03:26;11.20;;;5.65;;
28605;SDS011;46498;49.968;7.754;2023-04-06T15:08:28;10.65;;;5.05;;
28605;SDS011;46498;49.968;7.754;2023-04-06T15:13:29;12.85;;;6.30;;
28605;SDS011;46498;49.968;7.754;2023-04-06T15:18:30;9.77;;;5.43;;
28605;SDS011;46498;49.968;7.754;2023-04-06T15:23:30;17.48;;;6.90;;
28605;SDS011;46498;49.968;7.754;2023-04-06T15:28:31;11.15;;;5.62;;
28605;SDS011;46498;49.968;7.754;2023-04-06T15:33:33;8.05;;;4.82;;
28605;SDS011;46498;49.968;7.754;2023-04-06T15:38:33;17.58;;;5.75;;
28605;SDS011;46498;49.968;7.754;2023-04-06T15:43:34;14.73;;;6.10;;
28605;SDS011;46498;49.968;7.754;2023-04-06T15:48:35;12.18;;;4.95;;
28605;SDS011;46498;49.968;7.754;2023-04-06T15:53:36;9.82;;;5.35;;
28605;SDS011;46498;49.968;7.754;2023-04-06T15:58:39;13.48;;;6.22;;
28605;SDS011;46498;49.968;7.754;2023-04-06T16:03:40;13.10;;;5.72;;
28605;SDS011;46498;49.968;7.754;2023-04-06T16:08:42;11.12;;;5.72;;
28605;SDS011;46498;49.968;7.754;2023-04-06T16:13:43;13.13;;;6.22;;
28605;SDS011;46498;49.968;7.754;2023-04-06T16:18:53;15.20;;;6.55;;
28605;SDS011;46498;49.968;7.754;2023-04-06T16:23:54;12.98;;;6.00;;
28605;SDS011;46498;49.968;7.754;2023-04-06T16:28:54;11.80;;;6.43;;
28605;SDS011;46498;49.968;7.754;2023-04-06T16:33:56;12.63;;;5.85;;
28605;SDS011;46498;49.968;7.754;2023-04-06T16:38:58;13.32;;;6.10;;
28605;SDS011;46498;49.968;7.754;2023-04-06T16:44:00;14.93;;;7.22;;
28605;SDS011;46498;49.968;7.754;2023-04-06T16:49:02;16.37;;;7.95;;
28605;SDS011;46498;49.968;7.754;2023-04-06T16:54:05;12.70;;;7.43;;
28605;SDS011;46498;49.968;7.754;2023-04-06T16:59:07;13.95;;;7.37;;
28605;SDS011;46498;49.968;7.754;2023-04-06T17:04:08;13.30;;;7.15;;
28605;SDS011;46498;49.968;7.754;2023-04-06T17:09:09;11.90;;;6.65;;
28605;SDS011;46498;49.968;7.754;2023-04-06T17:14:10;13.38;;;7.12;;
28605;SDS011;46498;49.968;7.754;2023-04-06T17:19:11;16.95;;;8.40;;
28605;SDS011;46498;49.968;7.754;2023-04-06T17:24:12;15.65;;;7.95;;
28605;SDS011;46498;49.968;7.754;2023-04-06T17:29:13;16.42;;;9.35;;
28605;SDS011;46498;49.968;7.754;2023-04-06T17:34:15;20.42;;;10.70;;
28605;SDS011;46498;49.968;7.754;2023-04-06T17:39:16;17.40;;;9.38;;
28605;SDS011;46498;49.968;7.754;2023-04-06T17:44:18;21.58;;;10.48;;
28605;SDS011;46498;49.968;7.754;2023-04-06T17:49:19;21.75;;;10.75;;
28605;SDS011;46498;49.968;7.754;2023-04-06T17:54:19;21.73;;;11.57;;
28605;SDS011;46498;49.968;7.754;2023-04-06T17:59:20;22.70;;;11.50;;
28605;SDS011;46498;49.968;7.754;2023-04-06T18:04:21;22.08;;;11.75;;
28605;SDS011;46498;49.968;7.754;2023-04-06T18:09:22;20.83;;;11.05;;
28605;SDS011;46498;49.968;7.754;2023-04-06T18:14:24;21.08;;;11.20;;
28605;SDS011;46498;49.968;7.754;2023-04-06T18:19:24;19.83;;;11.55;;
28605;SDS011;46498;49.968;7.754;2023-04-06T18:29:42;20.37;;;10.85;;
28605;SDS011;46498;49.968;7.754;2023-04-06T18:34:44;21.25;;;10.60;;
28605;SDS011;46498;49.968;7.754;2023-04-06T18:39:45;20.98;;;11.25;;
28605;SDS011;46498;49.968;7.754;2023-04-06T18:44:46;22.00;;;10.65;;
28605;SDS011;46498;49.968;7.754;2023-04-06T18:49:48;20.37;;;12.37;;
28605;SDS011;46498;49.968;7.754;2023-04-06T18:54:49;23.27;;;12.23;;
28605;SDS011;46498;49.968;7.754;2023-04-06T18:59:50;22.98;;;12.37;;
28605;SDS011;46498;49.968;7.754;2023-04-06T19:04:52;25.52;;;12.35;;
28605;SDS011;46498;49.968;7.754;2023-04-06T19:09:53;25.10;;;12.65;;
28605;SDS011;46498;49.968;7.754;2023-04-06T19:14:54;21.17;;;12.02;;
28605;SDS011;46498;49.968;7.754;2023-04-06T19:19:55;23.77;;;12.75;;
28605;SDS011;46498;49.968;7.754;2023-04-06T19:24:57;23.15;;;12.57;;
28605;SDS011;46498;49.968;7.754;2023-04-06T19:29:58;25.58;;;13.57;;
28605;SDS011;46498;49.968;7.754;2023-04-06T19:34:59;25.20;;;13.35;;
28605;SDS011;46498;49.968;7.754;2023-04-06T19:40:02;24.37;;;13.50;;
28605;SDS011;46498;49.968;7.754;2023-04-06T19:45:07;25.05;;;13.43;;
28605;SDS011;46498;49.968;7.754;2023-04-06T19:50:08;28.65;;;13.75;;
28605;SDS011;46498;49.968;7.754;2023-04-06T19:55:11;24.20;;;13.10;;
28605;SDS011;46498;49.968;7.754;2023-04-06T20:00:12;24.75;;;12.98;;
28605;SDS011;46498;49.968;7.754;2023-04-06T20:05:13;26.05;;;14.55;;
28605;SDS011;46498;49.968;7.754;2023-04-06T20:10:14;22.80;;;14.23;;
28605;SDS011;46498;49.968;7.754;2023-04-06T20:15:16;31.48;;;15.20;;
28605;SDS011;46498;49.968;7.754;2023-04-06T20:20:18;27.35;;;14.43;;
28605;SDS011;46498;49.968;7.754;2023-04-06T20:25:19;25.70;;;14.10;;
28605;SDS011;46498;49.968;7.754;2023-04-06T20:30:21;26.17;;;13.90;;
28605;SDS011;46498;49.968;7.754;2023-04-06T20:35:22;27.90;;;14.10;;
28605;SDS011;46498;49.968;7.754;2023-04-06T20:40:23;28.35;;;14.77;;
28605;SDS011;46498;49.968;7.754;2023-04-06T20:45:23;33.50;;;15.90;;
28605;SDS011;46498;49.968;7.754;2023-04-06T20:50:25;33.10;;;16.12;;
28605;SDS011;46498;49.968;7.754;2023-04-06T20:55:26;33.60;;;17.08;;
28605;SDS011;46498;49.968;7.754;2023-04-06T21:00:27;32.80;;;15.75;;
28605;SDS011;46498;49.968;7.754;2023-04-06T21:05:28;31.73;;;15.68;;
28605;SDS011;46498;49.968;7.754;2023-04-06T21:10:29;30.27;;;15.65;;
28605;SDS011;46498;49.968;7.754;2023-04-06T21:15:30;30.33;;;16.20;;
28605;SDS011;46498;49.968;7.754;2023-04-06T21:20:31;31.58;;;16.58;;
28605;SDS011;46498;49.968;7.754;2023-04-06T21:25:34;32.63;;;16.95;;
28605;SDS011;46498;49.968;7.754;2023-04-06T21:30:36;28.23;;;16.20;;
28605;SDS011;46498;49.968;7.754;2023-04-06T21:35:38;29.25;;;15.63;;
28605;SDS011;46498;49.968;7.754;2023-04-06T21:40:40;31.85;;;15.20;;
28605;SDS011;46498;49.968;7.754;2023-04-06T21:45:47;29.15;;;16.27;;
28605;SDS011;46498;49.968;7.754;2023-04-06T21:50:48;35.55;;;17.25;;
28605;SDS011;46498;49.968;7.754;2023-04-06T21:55:50;31.00;;;16.55;;
28605;SDS011;46498;49.968;7.754;2023-04-06T22:00:51;32.58;;;18.23;;
28605;SDS011;46498;49.968;7.754;2023-04-06T22:05:51;35.63;;;17.58;;
28605;SDS011;46498;49.968;7.754;2023-04-06T22:10:53;35.95;;;19.02;;
28605;SDS011;46498;49.968;7.754;2023-04-06T22:15:54;38.20;;;17.55;;
28605;SDS011;46498;49.968;7.754;2023-04-06T22:20:55;32.58;;;18.05;;
28605;SDS011;46498;49.968;7.754;2023-04-06T22:25:56;35.80;;;18.92;;
28605;SDS011;46498;49.968;7.754;2023-04-06T22:30:57;41.15;;;20.42;;
28605;SDS011;46498;49.968;7.754;2023-04-06T22:35:58;36.53;;;19.48;;
28605;SDS011;46498;49.968;7.754;2023-04-06T22:40:59;41.70;;;20.67;;
28605;SDS011;46498;49.968;7.754;2023-04-06T22:46:00;36.67;;;19.27;;
28605;SDS011;46498;49.968;7.754;2023-04-06T22:51:01;39.45;;;19.67;;
28605;SDS011;46498;49.968;7.754;2023-04-06T22:56:02;34.25;;;18.25;;
28605;SDS011;46498;49.968;7.754;2023-04-06T23:01:03;34.72;;;18.17;;
28605;SDS011;46498;49.968;7.754;2023-04-06T23:06:04;35.33;;;18.77;;
28605;SDS011;46498;49.968;7.754;2023-04-06T23:11:05;34.22;;;18.30;;
28605;SDS011;46498;49.968;7.754;2023-04-06T23:16:07;35.35;;;18.05;;
28605;SDS011;46498;49.968;7.754;2023-04-06T23:21:08;31.57;;;16.80;;
28605;SDS011;46498;49.968;7.754;2023-04-06T23:26:10;32.20;;;17.33;;
28605;SDS011;46498;49.968;7.754;2023-04-06T23:31:11;30.33;;;16.98;;
28605;SDS011;46498;49.968;7.754;2023-04-06T23:36:11;32.40;;;17.48;;
28605;SDS011;46498;49.968;7.754;2023-04-06T23:41:13;28.17;;;15.70;;
28605;SDS011;46498;49.968;7.754;2023-04-06T23:46:15;34.38;;;18.05;;
28605;SDS011;46498;49.968;7.754;2023-04-06T23:51:16;34.85;;;18.42;;
28605;SDS011;46498;49.968;7.754;2023-04-06T23:56:17;32.30;;;18.05;;
